logo
Search for airport 
image banner adimage banner adimage banner ad
image banner ad

FMNX - Mandritsara

Located in , Madagascar

ICAO - FMNX, IATA - WMA

Data provided by Airmate  

General information

Coordinates: S15°50'48" E48°50'8"
Elevation is 1007 feet MSL.
 
View others Airports in Mahajanga

Operational data

Special qualification required
Current time UTC:
Current local time:
Weather at : - ( 0 km )
METAR: CYXR 281206Z AUTO 06003KT 020V090 0SM -TSRA FG VV002 03/03 A2905 RMK LTNG DIST ALQDS SLP850
View NOTAMs / SUP AIP / TFR affecting this airport [VIEW]
Communications frequencies: [VIEW]

Runways:

RWY identifierQFULength (ft)Width (ft)SurfaceLDA (ft)
10374098UNK
28374098UNK

Airport contact information

Address: Madagascar

Satellite view of FMNX